Terminal Aerodrome Forecast
Issued by NWS

Home | Current Version | Previous Version | Text Only | Print | Product List | Glossary On
Versions: 1 2 3 4 5 6 7 8 9 10 11 12 13 14 15 16 17 18 19 20 21 22 23 24 25 26 27 28 29
000
FTUS43 KDMX 262334
TAFFOD
TAF
KFOD 262334Z 2700/2724 34008G14KT P6SM OVC018
     FM270200 33008G18KT P6SM OVC015
     FM271100 31009G18KT P6SM BKN021
     FM271800 29010G16KT P6SM SCT035=

USA.gov is the U.S. government's official web portal to all federal, state and local government web resources and services.